createdAt,value
2022-10-20T00:02:18.722Z,2.10
2022-10-20T00:04:46.453Z,1.92
2022-10-20T00:07:13.251Z,2.00
2022-10-20T00:09:40.061Z,2.17
2022-10-20T00:12:06.837Z,1.98
2022-10-20T00:14:33.615Z,2.35
2022-10-20T00:17:01.595Z,2.00
2022-10-20T00:19:29.101Z,2.03
2022-10-20T00:21:56.636Z,1.98
2022-10-20T00:24:23.411Z,2.00
2022-10-20T00:26:50.242Z,2.25
2022-10-20T00:31:44.756Z,2.00
2022-10-20T00:34:12.206Z,2.60
2022-10-20T00:36:39.753Z,2.28
2022-10-20T00:39:07.264Z,2.72
2022-10-20T00:41:34.540Z,2.47
2022-10-20T00:44:22.869Z,2.17
2022-10-20T00:46:49.864Z,2.10
2022-10-20T00:49:22.359Z,2.30
2022-10-20T00:51:51.331Z,2.47
2022-10-20T00:54:25.704Z,2.55
2022-10-20T00:56:55.539Z,2.13
2022-10-20T00:59:26.527Z,2.30
2022-10-20T01:01:55.061Z,2.30
2022-10-20T01:04:22.925Z,2.45
2022-10-20T01:06:49.855Z,2.20
2022-10-20T01:09:16.847Z,2.40
2022-10-20T01:11:46.565Z,2.50
2022-10-20T01:14:31.803Z,2.42
2022-10-20T01:17:10.914Z,2.40
2022-10-20T01:20:07.765Z,2.70
2022-10-20T01:22:53.349Z,2.50
2022-10-20T01:25:50.587Z,2.33
2022-10-20T01:28:34.731Z,2.47
2022-10-20T01:31:05.829Z,2.58
2022-10-20T01:33:54.765Z,2.72
2022-10-20T01:36:31.285Z,2.95
2022-10-20T01:39:06.561Z,3.10
2022-10-20T01:41:43.739Z,3.10
2022-10-20T01:44:14.777Z,3.20
2022-10-20T01:46:43.350Z,2.78
2022-10-20T01:49:11.763Z,2.72
2022-10-20T01:51:38.632Z,3.50
2022-10-20T01:54:05.785Z,2.80
2022-10-20T01:57:04.349Z,2.83
2022-10-20T01:59:49.143Z,2.95
2022-10-20T02:02:45.508Z,2.95
2022-10-20T02:05:24.228Z,3.03
2022-10-20T02:07:54.136Z,3.10
2022-10-20T02:10:27.924Z,2.95
2022-10-20T02:12:59.513Z,3.35
2022-10-20T02:15:28.442Z,2.65
2022-10-20T02:18:00.429Z,2.78
2022-10-20T02:20:29.629Z,3.30
2022-10-20T02:22:58.717Z,3.40
2022-10-20T02:25:27.565Z,2.80
2022-10-20T02:27:56.438Z,2.78
2022-10-20T02:30:23.412Z,3.00
2022-10-20T02:32:52.979Z,2.88
2022-10-20T02:35:27.330Z,3.22
2022-10-20T02:37:54.202Z,3.05
2022-10-20T02:40:22.441Z,3.47
2022-10-20T02:42:49.776Z,3.03
2022-10-20T02:45:16.780Z,3.22
2022-10-20T02:47:43.703Z,3.03
2022-10-20T02:50:10.721Z,3.47
2022-10-20T02:52:38.135Z,3.40
2022-10-20T02:55:06.227Z,3.50
2022-10-20T02:57:33.561Z,3.33
2022-10-20T03:00:00.435Z,3.13
2022-10-20T03:02:27.244Z,3.28
2022-10-20T03:04:54.229Z,2.97
2022-10-20T03:07:20.982Z,4.30
2022-10-20T03:09:47.842Z,4.55
2022-10-20T03:12:14.701Z,3.90
2022-10-20T03:14:43.005Z,3.90
2022-10-20T03:17:10.105Z,4.03
2022-10-20T03:19:37.247Z,3.63
2022-10-20T03:22:03.994Z,3.47
2022-10-20T03:24:30.746Z,3.22
2022-10-20T03:26:57.556Z,3.75
2022-10-20T03:29:24.297Z,3.22
2022-10-20T03:31:51.089Z,3.80
2022-10-20T03:34:17.875Z,3.50
2022-10-20T03:36:44.658Z,3.20
2022-10-20T03:39:11.515Z,3.47
2022-10-20T03:41:38.295Z,3.50
2022-10-20T03:44:05.189Z,3.70
2022-10-20T03:46:31.881Z,3.38
2022-10-20T03:48:58.736Z,2.97
2022-10-20T03:51:25.582Z,3.20
2022-10-20T03:53:52.353Z,3.78
2022-10-20T03:56:20.476Z,3.63
2022-10-20T03:58:47.727Z,3.65
2022-10-20T04:01:20.346Z,4.47
2022-10-20T04:03:47.264Z,3.88
2022-10-20T04:06:14.940Z,3.50
2022-10-20T04:08:41.854Z,3.88
2022-10-20T04:11:08.982Z,3.72
2022-10-20T04:13:35.857Z,5.38
2022-10-20T04:16:02.592Z,4.22
2022-10-20T04:18:29.355Z,3.63
2022-10-20T04:20:59.240Z,4.15
2022-10-20T04:23:26.126Z,3.63
2022-10-20T04:25:52.961Z,4.18
2022-10-20T04:28:21.084Z,3.90
2022-10-20T04:30:49.095Z,3.95
2022-10-20T04:33:16.451Z,3.58
2022-10-20T04:35:46.370Z,3.78
2022-10-20T04:38:14.198Z,3.83
2022-10-20T04:40:41.098Z,4.13
2022-10-20T04:43:10.022Z,4.20
2022-10-20T04:45:37.364Z,3.58
2022-10-20T04:48:05.540Z,4.72
2022-10-20T04:50:34.962Z,4.18
2022-10-20T04:53:01.752Z,4.03
2022-10-20T04:55:28.493Z,4.25
2022-10-20T04:57:55.221Z,4.68
2022-10-20T05:00:22.010Z,4.93
2022-10-20T05:02:48.742Z,4.43
2022-10-20T05:05:15.612Z,4.50
2022-10-20T05:07:42.490Z,4.15
2022-10-20T05:10:10.292Z,5.13
2022-10-20T05:12:38.559Z,4.32
2022-10-20T05:15:05.890Z,4.65
2022-10-20T05:17:34.082Z,4.38
2022-10-20T05:20:01.263Z,4.47
2022-10-20T05:22:35.858Z,9.75
2022-10-20T05:25:37.090Z,5.53
2022-10-20T05:28:05.135Z,4.43
2022-10-20T05:30:34.479Z,4.07
2022-10-20T05:33:02.807Z,10.05
2022-10-20T05:35:29.640Z,7.13
2022-10-20T05:38:08.008Z,6.50
2022-10-20T05:40:42.206Z,6.28
2022-10-20T05:43:09.023Z,6.32
2022-10-20T05:45:35.772Z,5.30
2022-10-20T05:48:02.551Z,4.50
2022-10-20T05:50:29.440Z,4.18
2022-10-20T05:52:56.284Z,4.63
2022-10-20T05:55:23.277Z,6.18
2022-10-20T05:57:51.164Z,4.72
2022-10-20T06:00:23.905Z,5.10
2022-10-20T06:02:54.299Z,4.57
2022-10-20T06:05:20.995Z,5.88
2022-10-20T06:07:47.726Z,6.45
2022-10-20T06:10:14.472Z,6.20
2022-10-20T06:12:41.125Z,6.63
2022-10-20T06:15:08.365Z,7.47
2022-10-20T06:17:35.070Z,4.28
2022-10-20T06:20:01.823Z,4.07
2022-10-20T06:22:28.596Z,4.25
2022-10-20T06:24:55.286Z,4.10
2022-10-20T06:27:22.009Z,4.60
2022-10-20T06:29:48.893Z,4.90
2022-10-20T06:32:18.482Z,4.47
2022-10-20T06:34:45.321Z,3.88
2022-10-20T06:37:12.055Z,4.65
2022-10-20T06:39:38.759Z,5.13
2022-10-20T06:42:09.576Z,4.78
2022-10-20T06:44:38.706Z,4.70
2022-10-20T06:47:10.501Z,4.38
2022-10-20T06:49:37.312Z,4.93
2022-10-20T06:52:04.411Z,4.15
2022-10-20T06:54:31.364Z,4.07
2022-10-20T06:56:58.052Z,4.47
2022-10-20T06:59:24.814Z,4.60
2022-10-20T07:01:53.050Z,4.13
2022-10-20T07:04:19.862Z,4.32
2022-10-20T07:06:47.377Z,4.32
2022-10-20T07:09:19.703Z,5.10
2022-10-20T07:11:51.294Z,4.90
2022-10-20T07:14:18.016Z,4.57
2022-10-20T07:16:44.775Z,8.43
2022-10-20T07:19:11.850Z,5.38
2022-10-20T07:21:41.534Z,4.70
2022-10-20T07:24:10.412Z,4.30
2022-10-20T07:26:39.955Z,5.15
2022-10-20T07:29:06.856Z,5.15
2022-10-20T07:31:39.897Z,5.63
2022-10-20T07:34:26.763Z,7.20
2022-10-20T07:36:55.688Z,5.40
2022-10-20T07:39:22.732Z,5.75
2022-10-20T07:41:50.061Z,4.57
2022-10-20T07:44:17.170Z,5.65
2022-10-20T07:46:47.021Z,5.25
2022-10-20T07:52:00.834Z,4.72
2022-10-20T07:54:27.563Z,5.25
2022-10-20T07:56:54.278Z,4.78
2022-10-20T07:59:21.096Z,4.65
2022-10-20T08:01:48.245Z,5.10
2022-10-20T08:04:15.054Z,4.88
2022-10-20T08:06:42.078Z,4.43
2022-10-20T08:09:09.103Z,4.95
2022-10-20T08:11:36.263Z,4.50
2022-10-20T08:14:03.293Z,4.57
2022-10-20T08:16:33.459Z,4.40
2022-10-20T08:19:11.689Z,5.55
2022-10-20T08:21:38.438Z,3.58
2022-10-20T08:24:05.423Z,3.60
2022-10-20T08:26:32.133Z,3.67
2022-10-20T08:28:58.858Z,3.55
2022-10-20T08:31:25.921Z,3.20
2022-10-20T08:33:53.259Z,3.20
2022-10-20T08:36:21.214Z,2.97
2022-10-20T08:38:48.783Z,3.13
2022-10-20T08:41:21.191Z,2.92
2022-10-20T08:43:50.577Z,3.50
2022-10-20T08:46:20.348Z,3.35
2022-10-20T08:48:48.183Z,3.67
2022-10-20T08:51:21.093Z,2.83
2022-10-20T08:53:51.876Z,3.17
2022-10-20T08:56:23.067Z,3.17
2022-10-20T08:58:49.862Z,3.38
2022-10-20T09:01:26.178Z,3.38
2022-10-20T09:03:57.774Z,3.17
2022-10-20T09:06:24.993Z,3.60
2022-10-20T09:08:52.523Z,2.90
2022-10-20T09:11:24.424Z,3.10
2022-10-20T09:13:51.608Z,3.33
2022-10-20T09:16:40.691Z,3.90
2022-10-20T09:19:20.583Z,3.70
2022-10-20T09:21:52.593Z,3.35
2022-10-20T09:24:22.007Z,3.42
2022-10-20T09:26:59.992Z,3.00
2022-10-20T09:29:39.146Z,3.75
2022-10-20T09:32:52.675Z,3.30
2022-10-20T09:35:24.196Z,3.17
2022-10-20T09:37:55.036Z,3.75
2022-10-20T09:40:22.932Z,3.22
2022-10-20T09:43:18.289Z,3.78
2022-10-20T09:45:56.340Z,3.60
2022-10-20T09:48:33.151Z,3.42
2022-10-20T09:51:00.778Z,3.60
2022-10-20T09:53:32.654Z,3.60
2022-10-20T09:55:59.756Z,3.20
2022-10-20T09:58:39.344Z,3.72
2022-10-20T10:01:12.134Z,3.70
2022-10-20T10:03:41.262Z,3.35
2022-10-20T10:06:28.296Z,3.92
2022-10-20T10:08:56.611Z,3.80
2022-10-20T10:11:35.853Z,3.80
2022-10-20T10:14:03.647Z,3.40
2022-10-20T10:16:41.459Z,3.58
2022-10-20T10:21:55.782Z,3.50
2022-10-20T10:24:40.969Z,4.05
2022-10-20T10:27:22.713Z,3.78
2022-10-20T10:29:49.690Z,3.60
2022-10-20T10:32:19.547Z,3.90
2022-10-20T10:35:23.107Z,3.78
2022-10-20T10:37:50.348Z,3.83
2022-10-20T10:40:20.034Z,3.78
2022-10-20T10:42:49.807Z,3.92
2022-10-20T10:45:24.188Z,3.95
2022-10-20T10:48:00.707Z,4.03
2022-10-20T10:50:33.858Z,4.50
2022-10-20T10:53:25.211Z,3.53
2022-10-20T10:56:10.661Z,4.40
2022-10-20T10:58:40.094Z,4.63
2022-10-20T11:01:18.931Z,4.15
2022-10-20T11:04:20.164Z,4.15
2022-10-20T11:06:58.025Z,4.60
2022-10-20T11:09:46.645Z,4.18
2022-10-20T11:12:26.446Z,4.30
2022-10-20T11:15:30.618Z,4.63
2022-10-20T11:18:19.373Z,4.53
2022-10-20T11:20:59.700Z,4.55
2022-10-20T11:24:04.600Z,4.38
2022-10-20T11:26:47.959Z,4.72
2022-10-20T11:29:25.225Z,4.05
2022-10-20T11:32:18.557Z,4.50
2022-10-20T11:35:13.746Z,4.10
2022-10-20T11:37:43.460Z,4.22
2022-10-20T11:40:10.132Z,3.88
2022-10-20T11:42:52.841Z,4.47
2022-10-20T11:45:25.381Z,4.38
2022-10-20T11:48:21.471Z,4.22
2022-10-20T11:51:17.453Z,4.18
2022-10-20T11:54:13.491Z,4.65
2022-10-20T11:56:43.105Z,4.93
2022-10-20T11:59:35.053Z,4.68
2022-10-20T12:02:49.301Z,4.63
2022-10-20T12:05:48.169Z,4.45
2022-10-20T12:08:39.020Z,4.78
2022-10-20T12:11:14.714Z,4.80
2022-10-20T12:14:14.341Z,4.70
2022-10-20T12:16:58.411Z,4.72
2022-10-20T12:19:31.280Z,4.00
2022-10-20T12:22:04.148Z,4.10
2022-10-20T12:24:30.801Z,4.25
2022-10-20T12:27:17.936Z,4.75
2022-10-20T12:29:44.592Z,4.50
2022-10-20T12:32:29.853Z,4.50
2022-10-20T12:35:02.042Z,4.30
2022-10-20T12:37:34.652Z,4.10
2022-10-20T12:40:07.822Z,4.32
2022-10-20T12:42:39.089Z,4.35
2022-10-20T12:45:09.161Z,4.32
2022-10-20T12:47:37.599Z,4.25
2022-10-20T12:50:31.362Z,3.67
2022-10-20T12:53:10.932Z,3.78
2022-10-20T12:55:41.917Z,4.80
2022-10-20T12:58:18.270Z,3.92
2022-10-20T13:00:48.333Z,3.65
2022-10-20T13:03:47.006Z,4.32
2022-10-20T13:06:22.575Z,3.80
2022-10-20T13:09:04.960Z,3.95
2022-10-20T13:11:37.889Z,3.75
2022-10-20T13:14:27.650Z,3.78
2022-10-20T13:17:09.623Z,3.50
2022-10-20T13:20:01.169Z,4.25
2022-10-20T13:22:38.250Z,3.47
2022-10-20T13:25:28.108Z,3.28
2022-10-20T13:31:05.755Z,4.05
2022-10-20T13:34:08.666Z,3.60
2022-10-20T13:36:38.247Z,3.60
2022-10-20T13:39:33.633Z,3.65
2022-10-20T13:42:06.484Z,3.60
2022-10-20T13:44:52.413Z,3.60
2022-10-20T13:47:31.096Z,3.90
2022-10-20T13:50:14.644Z,3.67
2022-10-20T13:52:47.453Z,3.90
2022-10-20T13:55:27.183Z,3.65
2022-10-20T13:58:07.640Z,3.88
2022-10-20T14:00:36.430Z,3.85
2022-10-20T14:03:15.633Z,3.85
2022-10-20T14:05:42.562Z,4.30
2022-10-20T14:08:17.115Z,4.13
2022-10-20T14:10:55.200Z,3.75
2022-10-20T14:13:34.628Z,3.33
2022-10-20T14:16:08.217Z,3.30
2022-10-20T14:18:39.703Z,3.70
2022-10-20T14:21:19.959Z,3.55
2022-10-20T14:23:49.314Z,3.42
2022-10-20T14:26:19.840Z,3.70
2022-10-20T14:28:48.878Z,3.53
2022-10-20T14:31:16.384Z,3.57
2022-10-20T14:33:48.089Z,5.22
2022-10-20T14:39:01.019Z,3.08
2022-10-20T14:41:34.103Z,3.45
2022-10-20T14:44:06.790Z,2.80
2022-10-20T14:46:40.554Z,3.53
2022-10-20T14:49:22.865Z,3.35
2022-10-20T14:52:12.458Z,3.35
2022-10-20T14:54:39.980Z,3.00
2022-10-20T14:57:09.581Z,2.85
2022-10-20T14:59:49.649Z,3.05
2022-10-20T15:04:48.579Z,2.85
2022-10-20T15:07:32.914Z,2.90
2022-10-20T15:10:25.392Z,3.58
2022-10-20T15:12:54.245Z,3.10
2022-10-20T15:15:36.142Z,3.28
2022-10-20T15:18:18.549Z,3.05
2022-10-20T15:20:47.966Z,3.15
2022-10-20T15:23:27.024Z,3.10
2022-10-20T15:26:11.096Z,2.63
2022-10-20T15:28:47.793Z,2.80
2022-10-20T15:31:27.290Z,3.53
2022-10-20T15:33:56.127Z,3.40
2022-10-20T15:36:29.619Z,3.08
2022-10-20T15:38:57.042Z,2.90
2022-10-20T15:41:35.448Z,3.45
2022-10-20T15:44:10.801Z,3.40
2022-10-20T15:46:37.541Z,3.50
2022-10-20T15:49:04.624Z,3.13
2022-10-20T15:51:34.805Z,2.80
2022-10-20T15:54:02.409Z,2.60
2022-10-20T15:56:29.550Z,2.72
2022-10-20T15:58:56.439Z,3.35
2022-10-20T16:01:23.572Z,2.65
2022-10-20T16:03:51.611Z,3.10
2022-10-20T16:06:19.223Z,3.15
2022-10-20T16:08:48.474Z,2.67
2022-10-20T16:11:16.854Z,3.15
2022-10-20T16:13:44.038Z,3.25
2022-10-20T16:16:17.248Z,3.58
2022-10-20T16:18:45.015Z,3.10
2022-10-20T16:21:12.762Z,3.13
2022-10-20T16:23:42.309Z,2.90
2022-10-20T16:26:13.735Z,3.05
2022-10-20T16:28:40.892Z,3.30
2022-10-20T16:31:10.761Z,4.97
2022-10-20T16:33:38.246Z,5.43
2022-10-20T16:38:40.485Z,2.97
2022-10-20T16:41:10.614Z,3.08
2022-10-20T16:43:42.062Z,3.88
2022-10-20T16:46:10.338Z,3.80
2022-10-20T16:48:40.437Z,3.00
2022-10-20T16:51:11.504Z,3.17
2022-10-20T16:53:39.160Z,3.05
2022-10-20T16:56:07.106Z,3.10
2022-10-20T16:58:37.341Z,3.50
2022-10-20T17:01:11.273Z,3.55
2022-10-20T17:03:44.993Z,3.35
2022-10-20T17:06:14.700Z,3.65
2022-10-20T17:08:42.545Z,3.38
2022-10-20T17:11:14.897Z,3.00
2022-10-20T17:13:42.038Z,2.65
2022-10-20T17:16:34.067Z,3.40
2022-10-20T17:19:05.263Z,2.75
2022-10-20T17:21:35.984Z,3.65
2022-10-20T17:24:04.251Z,3.38
2022-10-20T17:26:32.960Z,3.00
2022-10-20T17:29:02.012Z,3.00
2022-10-20T17:31:30.103Z,3.27
2022-10-20T17:34:00.873Z,3.45
2022-10-20T17:36:30.852Z,3.47
2022-10-20T17:41:27.556Z,3.83
2022-10-20T17:43:55.360Z,3.28
2022-10-20T17:46:23.234Z,3.67
2022-10-20T17:48:50.661Z,3.78
2022-10-20T17:51:20.666Z,3.45
2022-10-20T17:56:20.346Z,3.20
2022-10-20T17:58:49.411Z,3.55
2022-10-20T18:01:20.505Z,3.33
2022-10-20T18:03:50.379Z,2.95
2022-10-20T18:06:20.485Z,3.65
2022-10-20T18:08:53.018Z,3.15
2022-10-20T18:11:24.426Z,4.07
2022-10-20T18:13:52.391Z,3.63
2022-10-20T18:16:21.754Z,5.70
2022-10-20T18:18:51.187Z,4.05
2022-10-20T18:21:20.191Z,4.40
2022-10-20T18:23:48.971Z,5.05
2022-10-20T18:26:23.005Z,3.50
2022-10-20T18:28:51.433Z,4.35
2022-10-20T18:31:23.162Z,3.75
2022-10-20T18:33:54.861Z,3.85
2022-10-20T18:36:22.715Z,4.03
2022-10-20T18:38:50.319Z,4.30
2022-10-20T18:41:20.387Z,3.50
2022-10-20T18:46:27.298Z,3.28
2022-10-20T18:48:55.317Z,4.00
2022-10-20T18:51:23.243Z,3.83
2022-10-20T18:53:56.444Z,3.55
2022-10-20T18:56:26.435Z,3.75
2022-10-20T19:01:30.074Z,3.47
2022-10-20T19:03:59.342Z,4.28
2022-10-20T19:06:47.151Z,4.20
2022-10-20T19:09:20.515Z,4.50
2022-10-20T19:14:18.176Z,4.07
2022-10-20T19:16:50.881Z,4.93
2022-10-20T19:19:19.047Z,4.68
2022-10-20T19:21:46.777Z,5.28
2022-10-20T19:24:18.164Z,4.80
2022-10-20T19:26:57.250Z,4.75
2022-10-20T19:29:33.428Z,5.03
2022-10-20T19:32:02.592Z,5.50
2022-10-20T19:34:41.712Z,4.93
2022-10-20T19:37:10.287Z,5.70
2022-10-20T19:39:41.834Z,5.93
2022-10-20T19:42:10.614Z,5.10
2022-10-20T19:44:42.776Z,4.90
2022-10-20T19:47:11.546Z,4.50
2022-10-20T19:49:40.507Z,5.05
2022-10-20T19:52:09.922Z,5.23
2022-10-20T19:54:38.601Z,5.00
2022-10-20T19:57:06.882Z,5.25
2022-10-20T19:59:34.543Z,4.70
2022-10-20T20:02:02.220Z,4.32
2022-10-20T20:04:30.123Z,5.22
2022-10-20T20:07:01.940Z,4.72
2022-10-20T20:09:30.725Z,4.65
2022-10-20T20:11:58.871Z,5.55
2022-10-20T20:14:26.242Z,5.13
2022-10-20T20:16:53.461Z,5.53
2022-10-20T20:19:20.811Z,5.43
2022-10-20T20:21:48.461Z,4.90
2022-10-20T20:24:15.848Z,4.68
2022-10-20T20:26:48.069Z,3.90
2022-10-20T20:29:15.325Z,4.28
2022-10-20T20:31:42.265Z,4.55
2022-10-20T20:34:09.716Z,4.57
2022-10-20T20:36:36.863Z,4.45
2022-10-20T20:39:04.167Z,4.38
2022-10-20T20:41:31.333Z,5.10
2022-10-20T20:43:58.468Z,5.53
2022-10-20T20:46:29.498Z,5.15
2022-10-20T20:49:00.714Z,5.43
2022-10-20T20:51:34.059Z,4.90
2022-10-20T20:54:01.951Z,5.32
2022-10-20T20:56:28.695Z,5.30
2022-10-20T20:58:59.357Z,5.20
2022-10-20T21:01:27.811Z,6.20
2022-10-20T21:03:56.508Z,5.15
2022-10-20T21:06:33.464Z,5.70
2022-10-20T21:09:06.410Z,5.40
2022-10-20T21:11:33.184Z,5.47
2022-10-20T21:13:59.972Z,5.55
2022-10-20T21:16:32.135Z,5.80
2022-10-20T21:19:02.232Z,6.07
2022-10-20T21:21:31.299Z,5.80
2022-10-20T21:23:58.825Z,5.80
2022-10-20T21:26:27.096Z,5.55
2022-10-20T21:28:54.391Z,6.32
2022-10-20T21:31:25.143Z,5.45
2022-10-20T21:33:54.264Z,5.63
2022-10-20T21:36:21.667Z,5.87
2022-10-20T21:38:48.872Z,5.95
2022-10-20T21:41:21.557Z,5.82
2022-10-20T21:43:51.062Z,5.03
2022-10-20T21:46:23.522Z,4.60
2022-10-20T21:48:52.458Z,5.60
2022-10-20T21:51:26.120Z,5.43
2022-10-20T21:53:57.341Z,5.32
2022-10-20T21:56:24.971Z,5.13
2022-10-20T21:58:52.128Z,6.10
2022-10-20T22:01:23.969Z,6.03
2022-10-20T22:03:52.879Z,5.93
2022-10-20T22:06:22.022Z,5.13
2022-10-20T22:08:52.270Z,5.13
2022-10-20T22:11:22.265Z,5.03
2022-10-20T22:13:49.219Z,4.53
2022-10-20T22:16:18.938Z,5.78
2022-10-20T22:18:45.675Z,4.88
2022-10-20T22:21:15.926Z,5.45
2022-10-20T22:23:43.322Z,5.57
2022-10-20T22:26:11.215Z,5.93
2022-10-20T22:28:38.568Z,5.38
2022-10-20T22:31:06.289Z,6.00
2022-10-20T22:33:33.534Z,6.10
2022-10-20T22:36:00.308Z,5.85
2022-10-20T22:38:27.043Z,5.53
2022-10-20T22:40:58.757Z,5.75
2022-10-20T22:43:25.992Z,6.70
2022-10-20T22:45:52.799Z,5.97
2022-10-20T22:48:19.610Z,5.85
2022-10-20T22:50:46.391Z,6.57
2022-10-20T22:53:13.271Z,6.03
2022-10-20T22:55:40.012Z,6.72
2022-10-20T22:58:06.919Z,6.15
2022-10-20T23:03:32.782Z,6.15
2022-10-20T23:05:59.532Z,7.10
2022-10-20T23:08:29.374Z,6.38
2022-10-20T23:10:59.141Z,6.78
2022-10-20T23:13:25.919Z,7.57
2022-10-20T23:15:53.235Z,7.75
2022-10-20T23:18:20.621Z,7.90
2022-10-20T23:20:47.441Z,7.57
2022-10-20T23:23:14.462Z,6.95
2022-10-20T23:25:43.974Z,7.95
2022-10-20T23:28:10.836Z,6.78
2022-10-20T23:30:37.584Z,7.03
2022-10-20T23:33:04.323Z,7.05
2022-10-20T23:35:31.334Z,7.10
2022-10-20T23:37:58.023Z,6.30
2022-10-20T23:40:24.752Z,6.28
2022-10-20T23:42:51.447Z,5.82
2022-10-20T23:45:18.133Z,6.35
2022-10-20T23:47:44.984Z,6.75
2022-10-20T23:50:11.751Z,6.50
2022-10-20T23:55:06.577Z,6.28
2022-10-20T23:57:33.274Z,7.40
2022-10-20T23:59:59.983Z,6.75
